sensor_id;sensor_type;location;lat;lon;timestamp;pressure;altitude;pressure_sealevel;temperature;humidity
71716;BME280;59568;52.128;5.434;2022-08-21T00:01:43;101843.66;;;14.33;76.09
71716;BME280;59568;52.128;5.434;2022-08-21T00:04:10;101844.97;;;14.30;76.34
71716;BME280;59568;52.128;5.434;2022-08-21T00:06:46;101853.44;;;14.27;76.42
71716;BME280;59568;52.128;5.434;2022-08-21T00:09:12;101847.69;;;14.25;76.40
71716;BME280;59568;52.128;5.434;2022-08-21T00:11:39;101849.06;;;14.23;76.65
71716;BME280;59568;52.128;5.434;2022-08-21T00:14:08;101852.47;;;14.23;76.62
71716;BME280;59568;52.128;5.434;2022-08-21T00:16:35;101852.75;;;14.22;76.37
71716;BME280;59568;52.128;5.434;2022-08-21T00:19:02;101851.47;;;14.19;76.88
71716;BME280;59568;52.128;5.434;2022-08-21T00:21:28;101848.06;;;14.18;76.72
71716;BME280;59568;52.128;5.434;2022-08-21T00:23:55;101853.59;;;14.17;77.07
71716;BME280;59568;52.128;5.434;2022-08-21T00:26:21;101854.66;;;14.16;76.71
71716;BME280;59568;52.128;5.434;2022-08-21T00:28:48;101843.91;;;14.12;77.11
71716;BME280;59568;52.128;5.434;2022-08-21T00:31:16;101842.66;;;14.10;76.89
71716;BME280;59568;52.128;5.434;2022-08-21T00:33:44;101844.50;;;14.09;77.07
71716;BME280;59568;52.128;5.434;2022-08-21T00:36:11;101842.44;;;14.06;77.20
71716;BME280;59568;52.128;5.434;2022-08-21T00:38:37;101834.34;;;14.03;76.97
71716;BME280;59568;52.128;5.434;2022-08-21T00:41:07;101833.84;;;14.01;76.79
71716;BME280;59568;52.128;5.434;2022-08-21T00:43:54;101829.94;;;13.98;76.85
71716;BME280;59568;52.128;5.434;2022-08-21T00:46:21;101834.69;;;13.96;76.91
71716;BME280;59568;52.128;5.434;2022-08-21T00:48:53;101839.22;;;13.90;77.10
71716;BME280;59568;52.128;5.434;2022-08-21T00:51:51;101838.72;;;13.88;77.45
71716;BME280;59568;52.128;5.434;2022-08-21T00:54:22;101838.72;;;13.88;77.11
71716;BME280;59568;52.128;5.434;2022-08-21T00:56:59;101847.69;;;13.87;77.36
71716;BME280;59568;52.128;5.434;2022-08-21T00:59:28;101847.19;;;13.85;77.05
71716;BME280;59568;52.128;5.434;2022-08-21T01:01:56;101845.59;;;13.84;76.94
71716;BME280;59568;52.128;5.434;2022-08-21T01:04:23;101843.56;;;13.81;77.34
71716;BME280;59568;52.128;5.434;2022-08-21T01:06:49;101835.72;;;13.76;77.41
71716;BME280;59568;52.128;5.434;2022-08-21T01:09:17;101839.44;;;13.75;77.34
71716;BME280;59568;52.128;5.434;2022-08-21T01:11:45;101834.44;;;13.73;77.38
71716;BME280;59568;52.128;5.434;2022-08-21T01:14:12;101838.94;;;13.73;77.67
71716;BME280;59568;52.128;5.434;2022-08-21T01:16:43;101826.34;;;13.70;77.16
71716;BME280;59568;52.128;5.434;2022-08-21T01:19:10;101830.06;;;13.69;77.85
71716;BME280;59568;52.128;5.434;2022-08-21T01:21:37;101829.06;;;13.65;77.61
71716;BME280;59568;52.128;5.434;2022-08-21T01:24:04;101834.03;;;13.66;77.92
71716;BME280;59568;52.128;5.434;2022-08-21T01:26:34;101833.50;;;13.64;77.66
71716;BME280;59568;52.128;5.434;2022-08-21T01:29:07;101837.97;;;13.64;77.74
71716;BME280;59568;52.128;5.434;2022-08-21T01:31:36;101836.94;;;13.65;77.38
71716;BME280;59568;52.128;5.434;2022-08-21T01:34:04;101836.94;;;13.65;77.42
71716;BME280;59568;52.128;5.434;2022-08-21T01:36:31;101837.22;;;13.63;77.66
71716;BME280;59568;52.128;5.434;2022-08-21T01:38:58;101841.69;;;13.63;77.45
71716;BME280;59568;52.128;5.434;2022-08-21T01:41:24;101832.50;;;13.60;77.51
71716;BME280;59568;52.128;5.434;2022-08-21T01:43:51;101830.19;;;13.58;77.45
71716;BME280;59568;52.128;5.434;2022-08-21T01:46:17;101826.25;;;13.56;77.29
71716;BME280;59568;52.128;5.434;2022-08-21T01:48:44;101829.69;;;13.56;77.51
71716;BME280;59568;52.128;5.434;2022-08-21T01:51:11;101826.06;;;13.52;77.52
71716;BME280;59568;52.128;5.434;2022-08-21T01:53:38;101821.06;;;13.51;77.55
71716;BME280;59568;52.128;5.434;2022-08-21T01:56:07;101825.03;;;13.48;77.81
71716;BME280;59568;52.128;5.434;2022-08-21T01:58:41;101824.53;;;13.46;77.85
71716;BME280;59568;52.128;5.434;2022-08-21T02:01:08;101826.94;;;13.43;78.00
71716;BME280;59568;52.128;5.434;2022-08-21T02:03:36;101829.06;;;13.41;77.77
71716;BME280;59568;52.128;5.434;2022-08-21T02:06:04;101821.97;;;13.41;78.01
71716;BME280;59568;52.128;5.434;2022-08-21T02:08:32;101824.84;;;13.39;77.89
71716;BME280;59568;52.128;5.434;2022-08-21T02:10:59;101814.44;;;13.34;78.24
71716;BME280;59568;52.128;5.434;2022-08-21T02:13:26;101811.00;;;13.34;78.43
71716;BME280;59568;52.128;5.434;2022-08-21T02:15:52;101818.38;;;13.32;78.37
71716;BME280;59568;52.128;5.434;2022-08-21T02:18:19;101813.13;;;13.32;78.85
71716;BME280;59568;52.128;5.434;2022-08-21T02:20:47;101811.84;;;13.29;78.22
71716;BME280;59568;52.128;5.434;2022-08-21T02:23:22;101813.66;;;13.29;78.55
71716;BME280;59568;52.128;5.434;2022-08-21T02:25:52;101816.28;;;13.29;78.12
71716;BME280;59568;52.128;5.434;2022-08-21T02:28:18;101810.03;;;13.25;78.79
71716;BME280;59568;52.128;5.434;2022-08-21T02:30:48;101800.09;;;13.22;78.41
71716;BME280;59568;52.128;5.434;2022-08-21T02:33:15;101806.91;;;13.23;78.39
71716;BME280;59568;52.128;5.434;2022-08-21T02:35:43;101798.53;;;13.21;78.43
71716;BME280;59568;52.128;5.434;2022-08-21T02:38:15;101799.88;;;13.18;78.49
71716;BME280;59568;52.128;5.434;2022-08-21T02:40:44;101800.16;;;13.16;78.47
71716;BME280;59568;52.128;5.434;2022-08-21T02:43:17;101798.06;;;13.13;78.64
71716;BME280;59568;52.128;5.434;2022-08-21T02:45:45;101799.16;;;13.12;78.60
71716;BME280;59568;52.128;5.434;2022-08-21T02:48:15;101793.91;;;13.12;78.45
71716;BME280;59568;52.128;5.434;2022-08-21T02:50:52;101791.28;;;13.12;78.07
71716;BME280;59568;52.128;5.434;2022-08-21T02:53:19;101783.41;;;13.12;78.56
71716;BME280;59568;52.128;5.434;2022-08-21T02:55:48;101788.94;;;13.11;78.39
71716;BME280;59568;52.128;5.434;2022-08-21T02:58:20;101785.03;;;13.08;78.67
71716;BME280;59568;52.128;5.434;2022-08-21T03:00:47;101782.16;;;13.05;78.56
71716;BME280;59568;52.128;5.434;2022-08-21T03:03:13;101787.69;;;13.03;78.45
71716;BME280;59568;52.128;5.434;2022-08-21T03:05:42;101787.69;;;13.03;78.52
71716;BME280;59568;52.128;5.434;2022-08-21T03:08:11;101775.66;;;13.02;78.39
71716;BME280;59568;52.128;5.434;2022-08-21T03:10:44;101778.81;;;12.99;78.39
71716;BME280;59568;52.128;5.434;2022-08-21T03:13:11;101779.09;;;12.97;78.39
71716;BME280;59568;52.128;5.434;2022-08-21T03:15:38;101774.13;;;12.96;78.73
71716;BME280;59568;52.128;5.434;2022-08-21T03:18:07;101773.63;;;12.94;78.83
71716;BME280;59568;52.128;5.434;2022-08-21T03:20:35;101776.25;;;12.94;78.91
71716;BME280;59568;52.128;5.434;2022-08-21T03:23:03;101779.16;;;12.92;78.81
71716;BME280;59568;52.128;5.434;2022-08-21T03:25:40;101781.50;;;12.94;78.84
71716;BME280;59568;52.128;5.434;2022-08-21T03:28:10;101770.50;;;12.92;78.59
71716;BME280;59568;52.128;5.434;2022-08-21T03:30:44;101777.31;;;12.93;78.79
71716;BME280;59568;52.128;5.434;2022-08-21T03:33:11;101770.50;;;12.92;79.10
71716;BME280;59568;52.128;5.434;2022-08-21T03:35:42;101769.69;;;12.91;79.45
71716;BME280;59568;52.128;5.434;2022-08-21T03:38:10;101773.91;;;12.92;79.15
71716;BME280;59568;52.128;5.434;2022-08-21T03:40:39;101772.06;;;12.93;78.99
71716;BME280;59568;52.128;5.434;2022-08-21T03:43:05;101769.44;;;12.93;78.92
71716;BME280;59568;52.128;5.434;2022-08-21T03:45:35;101762.91;;;12.90;79.37
71716;BME280;59568;52.128;5.434;2022-08-21T03:48:04;101767.38;;;12.90;79.70
71716;BME280;59568;52.128;5.434;2022-08-21T03:50:34;101779.41;;;12.91;79.40
71716;BME280;59568;52.128;5.434;2022-08-21T03:53:06;101772.91;;;12.88;79.28
71716;BME280;59568;52.128;5.434;2022-08-21T03:55:42;101774.75;;;12.88;79.43
71716;BME280;59568;52.128;5.434;2022-08-21T03:58:09;101771.88;;;12.84;79.11
71716;BME280;59568;52.128;5.434;2022-08-21T04:00:44;101773.72;;;12.84;78.97
71716;BME280;59568;52.128;5.434;2022-08-21T04:03:11;101770.88;;;12.80;79.31
71716;BME280;59568;52.128;5.434;2022-08-21T04:05:37;101777.94;;;12.79;79.63
71716;BME280;59568;52.128;5.434;2022-08-21T04:08:05;101775.88;;;12.76;79.21
71716;BME280;59568;52.128;5.434;2022-08-21T04:10:34;101774.81;;;12.77;79.51
71716;BME280;59568;52.128;5.434;2022-08-21T04:13:02;101781.13;;;12.76;79.67
71716;BME280;59568;52.128;5.434;2022-08-21T04:15:29;101768.56;;;12.73;79.11
71716;BME280;59568;52.128;5.434;2022-08-21T04:17:55;101769.91;;;12.71;79.72
71716;BME280;59568;52.128;5.434;2022-08-21T04:20:22;101774.38;;;12.70;79.33
71716;BME280;59568;52.128;5.434;2022-08-21T04:22:49;101770.69;;;12.71;79.30
71716;BME280;59568;52.128;5.434;2022-08-21T04:25:19;101777.78;;;12.71;79.41
71716;BME280;59568;52.128;5.434;2022-08-21T04:27:46;101775.91;;;12.71;79.78
71716;BME280;59568;52.128;5.434;2022-08-21T04:30:14;101773.59;;;12.70;79.45
71716;BME280;59568;52.128;5.434;2022-08-21T04:32:46;101772.25;;;12.72;79.71
71716;BME280;59568;52.128;5.434;2022-08-21T04:35:20;101772.25;;;12.72;79.33
71716;BME280;59568;52.128;5.434;2022-08-21T04:37:47;101767.00;;;12.72;79.63
71716;BME280;59568;52.128;5.434;2022-08-21T04:40:16;101765.94;;;12.73;79.57
71716;BME280;59568;52.128;5.434;2022-08-21T04:42:45;101770.91;;;12.75;79.55
71716;BME280;59568;52.128;5.434;2022-08-21T04:47:48;101769.38;;;12.74;79.62
71716;BME280;59568;52.128;5.434;2022-08-21T04:50:19;101769.56;;;12.77;79.85
71716;BME280;59568;52.128;5.434;2022-08-21T04:52:47;101767.75;;;12.78;80.30
71716;BME280;59568;52.128;5.434;2022-08-21T04:55:15;101774.03;;;12.77;79.90
71716;BME280;59568;52.128;5.434;2022-08-21T04:57:42;101779.00;;;12.78;79.73
71716;BME280;59568;52.128;5.434;2022-08-21T05:00:15;101769.56;;;12.77;80.08
71716;BME280;59568;52.128;5.434;2022-08-21T05:02:45;101772.69;;;12.79;79.81
71716;BME280;59568;52.128;5.434;2022-08-21T05:05:14;101780.03;;;12.83;80.05
71716;BME280;59568;52.128;5.434;2022-08-21T05:07:42;101775.28;;;12.85;80.24
71716;BME280;59568;52.128;5.434;2022-08-21T05:10:10;101777.38;;;12.88;79.73
71716;BME280;59568;52.128;5.434;2022-08-21T05:12:40;101787.25;;;12.96;79.74
71716;BME280;59568;52.128;5.434;2022-08-21T05:15:09;101795.06;;;13.01;79.55
71716;BME280;59568;52.128;5.434;2022-08-21T05:17:40;101789.81;;;13.01;79.72
71716;BME280;59568;52.128;5.434;2022-08-21T05:20:08;101794.00;;;13.02;79.81
71716;BME280;59568;52.128;5.434;2022-08-21T05:22:34;101795.53;;;13.08;79.42
71716;BME280;59568;52.128;5.434;2022-08-21T05:25:01;101798.66;;;13.10;79.44
71716;BME280;59568;52.128;5.434;2022-08-21T05:27:27;101796.53;;;13.12;79.20
71716;BME280;59568;52.128;5.434;2022-08-21T05:29:58;101794.13;;;13.16;79.56
71716;BME280;59568;52.128;5.434;2022-08-21T05:32:24;101802.22;;;13.19;79.64
71716;BME280;59568;52.128;5.434;2022-08-21T05:34:51;101794.84;;;13.22;79.52
71716;BME280;59568;52.128;5.434;2022-08-21T05:37:18;101806.06;;;13.27;79.39
71716;BME280;59568;52.128;5.434;2022-08-21T05:39:44;101803.69;;;13.31;78.83
71716;BME280;59568;52.128;5.434;2022-08-21T05:42:31;101803.59;;;13.41;78.84
71716;BME280;59568;52.128;5.434;2022-08-21T05:44:57;101797.66;;;13.54;79.30
71716;BME280;59568;52.128;5.434;2022-08-21T05:47:25;101798.53;;;13.69;79.11
71716;BME280;59568;52.128;5.434;2022-08-21T05:49:51;101796.28;;;13.81;79.08
71716;BME280;59568;52.128;5.434;2022-08-21T05:52:19;101797.63;;;13.97;80.43
71716;BME280;59568;52.128;5.434;2022-08-21T05:54:46;101796.75;;;14.21;79.88
71716;BME280;59568;52.128;5.434;2022-08-21T05:57:13;101797.47;;;14.27;80.08
71716;BME280;59568;52.128;5.434;2022-08-21T05:59:40;101800.16;;;14.22;81.12
71716;BME280;59568;52.128;5.434;2022-08-21T06:02:06;101790.22;;;14.18;81.61
71716;BME280;59568;52.128;5.434;2022-08-21T06:04:38;101791.50;;;14.21;82.02
71716;BME280;59568;52.128;5.434;2022-08-21T06:07:06;101791.91;;;14.28;82.32
71716;BME280;59568;52.128;5.434;2022-08-21T06:09:33;101789.13;;;14.38;82.38
71716;BME280;59568;52.128;5.434;2022-08-21T06:12:04;101786.91;;;14.46;81.11
71716;BME280;59568;52.128;5.434;2022-08-21T06:14:31;101791.22;;;14.55;82.16
71716;BME280;59568;52.128;5.434;2022-08-21T06:17:06;101790.00;;;14.67;80.79
71716;BME280;59568;52.128;5.434;2022-08-21T06:19:33;101793.75;;;14.80;80.86
71716;BME280;59568;52.128;5.434;2022-08-21T06:21:59;101798.03;;;14.89;82.07
71716;BME280;59568;52.128;5.434;2022-08-21T06:24:26;101792.59;;;15.00;83.00
71716;BME280;59568;52.128;5.434;2022-08-21T06:26:53;101805.28;;;15.11;82.98
71716;BME280;59568;52.128;5.434;2022-08-21T06:29:20;101798.25;;;15.21;83.04
71716;BME280;59568;52.128;5.434;2022-08-21T06:31:48;101801.16;;;15.33;83.13
71716;BME280;59568;52.128;5.434;2022-08-21T06:34:16;101797.75;;;15.46;81.80
71716;BME280;59568;52.128;5.434;2022-08-21T06:36:42;101791.78;;;15.54;81.96
71716;BME280;59568;52.128;5.434;2022-08-21T06:39:09;101793.16;;;15.66;81.76
71716;BME280;59568;52.128;5.434;2022-08-21T06:41:55;101793.44;;;15.78;81.53
71716;BME280;59568;52.128;5.434;2022-08-21T06:44:22;101799.44;;;15.92;81.77
71716;BME280;59568;52.128;5.434;2022-08-21T06:46:48;101797.84;;;16.05;81.59
71716;BME280;59568;52.128;5.434;2022-08-21T06:49:15;101793.13;;;16.16;81.90
71716;BME280;59568;52.128;5.434;2022-08-21T06:51:47;101805.16;;;16.31;80.62
71716;BME280;59568;52.128;5.434;2022-08-21T06:54:13;101799.81;;;16.45;81.23
71716;BME280;59568;52.128;5.434;2022-08-21T06:56:40;101804.56;;;16.56;81.03
71716;BME280;59568;52.128;5.434;2022-08-21T06:59:06;101800.72;;;16.71;80.42
71716;BME280;59568;52.128;5.434;2022-08-21T07:01:33;101802.53;;;16.85;79.75
71716;BME280;59568;52.128;5.434;2022-08-21T07:04:00;101799.00;;;16.98;79.83
71716;BME280;59568;52.128;5.434;2022-08-21T07:06:26;101801.88;;;17.10;80.11
71716;BME280;59568;52.128;5.434;2022-08-21T07:08:54;101799.91;;;17.25;79.25
71716;BME280;59568;52.128;5.434;2022-08-21T07:11:25;101799.78;;;17.39;78.87
71716;BME280;59568;52.128;5.434;2022-08-21T07:13:52;101796.38;;;17.47;78.86
71716;BME280;59568;52.128;5.434;2022-08-21T07:16:21;101794.19;;;17.66;78.79
71716;BME280;59568;52.128;5.434;2022-08-21T07:18:48;101795.50;;;17.86;78.50
71716;BME280;59568;52.128;5.434;2022-08-21T07:21:15;101792.69;;;17.91;77.68
71716;BME280;59568;52.128;5.434;2022-08-21T07:23:50;101783.03;;;18.04;77.85
71716;BME280;59568;52.128;5.434;2022-08-21T07:26:22;101793.91;;;18.20;77.47
71716;BME280;59568;52.128;5.434;2022-08-21T07:28:49;101784.69;;;18.35;77.32
71716;BME280;59568;52.128;5.434;2022-08-21T07:31:18;101786.06;;;18.50;76.87
71716;BME280;59568;52.128;5.434;2022-08-21T07:33:45;101789.00;;;18.66;76.30
71716;BME280;59568;52.128;5.434;2022-08-21T07:36:13;101788.16;;;18.83;76.48
71716;BME280;59568;52.128;5.434;2022-08-21T07:38:39;101786.69;;;19.03;75.59
71716;BME280;59568;52.128;5.434;2022-08-21T07:41:15;101790.47;;;19.23;75.30
71716;BME280;59568;52.128;5.434;2022-08-21T07:43:43;101789.47;;;19.36;74.30
71716;BME280;59568;52.128;5.434;2022-08-21T07:46:12;101788.19;;;19.42;74.70
71716;BME280;59568;52.128;5.434;2022-08-21T07:48:39;101794.63;;;19.53;74.64
71716;BME280;59568;52.128;5.434;2022-08-21T07:51:08;101796.25;;;19.67;73.90
71716;BME280;59568;52.128;5.434;2022-08-21T07:53:36;101791.19;;;19.83;74.26
71716;BME280;59568;52.128;5.434;2022-08-21T07:56:05;101791.72;;;20.09;73.79
71716;BME280;59568;52.128;5.434;2022-08-21T07:58:32;101801.72;;;20.25;73.48
71716;BME280;59568;52.128;5.434;2022-08-21T08:01:00;101804.53;;;20.41;73.18
71716;BME280;59568;52.128;5.434;2022-08-21T08:03:26;101795.91;;;20.56;72.86
71716;BME280;59568;52.128;5.434;2022-08-21T08:05:55;101801.72;;;20.70;72.76
71716;BME280;59568;52.128;5.434;2022-08-21T08:08:23;101794.75;;;20.78;72.06
71716;BME280;59568;52.128;5.434;2022-08-21T08:10:50;101796.63;;;20.90;71.76
71716;BME280;59568;52.128;5.434;2022-08-21T08:13:17;101793.41;;;20.97;71.39
71716;BME280;59568;52.128;5.434;2022-08-21T08:15:43;101786.00;;;21.14;70.01
71716;BME280;59568;52.128;5.434;2022-08-21T08:18:10;101789.88;;;21.29;70.79
71716;BME280;59568;52.128;5.434;2022-08-21T08:20:36;101790.41;;;21.47;69.39
71716;BME280;59568;52.128;5.434;2022-08-21T08:23:03;101776.19;;;21.56;70.07
71716;BME280;59568;52.128;5.434;2022-08-21T08:25:29;101772.38;;;21.69;68.53
71716;BME280;59568;52.128;5.434;2022-08-21T08:28:03;101782.88;;;21.78;69.08
71716;BME280;59568;52.128;5.434;2022-08-21T08:30:45;101785.41;;;21.86;69.41
71716;BME280;59568;52.128;5.434;2022-08-21T08:33:13;101788.88;;;22.03;68.60
71716;BME280;59568;52.128;5.434;2022-08-21T08:35:42;101787.41;;;22.05;69.75
71716;BME280;59568;52.128;5.434;2022-08-21T08:38:11;101782.53;;;22.23;68.87
71716;BME280;59568;52.128;5.434;2022-08-21T08:43:18;101792.38;;;22.51;67.90
71716;BME280;59568;52.128;5.434;2022-08-21T08:45:48;101789.09;;;22.73;67.59
71716;BME280;59568;52.128;5.434;2022-08-21T08:48:54;101788.94;;;22.98;66.27
71716;BME280;59568;52.128;5.434;2022-08-21T08:51:41;101796.13;;;23.13;65.97
71716;BME280;59568;52.128;5.434;2022-08-21T08:54:27;101785.59;;;23.37;65.23
71716;BME280;59568;52.128;5.434;2022-08-21T08:56:59;101779.41;;;23.52;66.07
71716;BME280;59568;52.128;5.434;2022-08-21T08:59:35;101780.88;;;23.49;65.75
71716;BME280;59568;52.128;5.434;2022-08-21T09:02:06;101784.16;;;23.62;64.55
71716;BME280;59568;52.128;5.434;2022-08-21T09:04:36;101782.28;;;23.82;64.20
71716;BME280;59568;52.128;5.434;2022-08-21T09:07:42;101784.09;;;23.98;64.14
71716;BME280;59568;52.128;5.434;2022-08-21T09:10:18;101775.53;;;23.88;62.89
71716;BME280;59568;52.128;5.434;2022-08-21T09:13:07;101771.81;;;23.73;63.38
71716;BME280;59568;52.128;5.434;2022-08-21T09:21:15;101773.22;;;24.29;63.84
71716;BME280;59568;52.128;5.434;2022-08-21T09:26:34;101770.56;;;23.67;63.31
71716;BME280;59568;52.128;5.434;2022-08-21T09:29:02;101777.84;;;23.31;64.30
71716;BME280;59568;52.128;5.434;2022-08-21T09:31:34;101772.50;;;23.12;66.53
71716;BME280;59568;52.128;5.434;2022-08-21T09:34:09;101785.31;;;23.06;64.94
71716;BME280;59568;52.128;5.434;2022-08-21T09:36:45;101777.56;;;23.01;63.87
71716;BME280;59568;52.128;5.434;2022-08-21T09:39:32;101780.88;;;23.49;64.24
71716;BME280;59568;52.128;5.434;2022-08-21T09:42:07;101783.88;;;24.06;63.60
71716;BME280;59568;52.128;5.434;2022-08-21T09:44:37;101782.47;;;24.36;60.63
71716;BME280;59568;52.128;5.434;2022-08-21T09:47:08;101778.19;;;24.54;59.98
71716;BME280;59568;52.128;5.434;2022-08-21T09:49:38;101789.28;;;24.79;61.65
71716;BME280;59568;52.128;5.434;2022-08-21T09:52:18;101784.84;;;24.90;58.28
71716;BME280;59568;52.128;5.434;2022-08-21T09:54:46;101783.13;;;24.75;61.04
71716;BME280;59568;52.128;5.434;2022-08-21T09:57:20;101780.66;;;25.20;61.17
71716;BME280;59568;52.128;5.434;2022-08-21T10:00:26;101776.81;;;25.47;58.31
71716;BME280;59568;52.128;5.434;2022-08-21T10:02:53;101769.56;;;25.18;59.73
71716;BME280;59568;52.128;5.434;2022-08-21T10:05:25;101772.56;;;24.86;60.86
71716;BME280;59568;52.128;5.434;2022-08-21T10:07:53;101779.75;;;24.55;60.23
71716;BME280;59568;52.128;5.434;2022-08-21T10:10:23;101766.31;;;24.28;61.05
71716;BME280;59568;52.128;5.434;2022-08-21T10:13:05;101766.66;;;24.04;62.98
71716;BME280;59568;52.128;5.434;2022-08-21T10:18:52;101766.84;;;24.61;62.49
71716;BME280;59568;52.128;5.434;2022-08-21T10:21:23;101771.25;;;25.03;59.46
71716;BME280;59568;52.128;5.434;2022-08-21T10:26:46;101767.50;;;24.81;60.89
71716;BME280;59568;52.128;5.434;2022-08-21T10:37:48;101760.84;;;25.55;57.65
71716;BME280;59568;52.128;5.434;2022-08-21T10:40:26;101765.22;;;25.70;58.22
71716;BME280;59568;52.128;5.434;2022-08-21T10:46:06;101766.31;;;26.03;57.32
71716;BME280;59568;52.128;5.434;2022-08-21T10:51:17;101757.47;;;26.43;57.32
71716;BME280;59568;52.128;5.434;2022-08-21T10:56:32;101744.72;;;26.81;53.71
71716;BME280;59568;52.128;5.434;2022-08-21T11:02:00;101735.53;;;26.86;54.57
71716;BME280;59568;52.128;5.434;2022-08-21T11:07:28;101741.81;;;27.15;54.16
71716;BME280;59568;52.128;5.434;2022-08-21T11:10:08;101742.66;;;27.34;54.13
71716;BME280;59568;52.128;5.434;2022-08-21T11:12:45;101735.41;;;27.41;50.32
71716;BME280;59568;52.128;5.434;2022-08-21T11:15:31;101749.59;;;27.45;52.11
71716;BME280;59568;52.128;5.434;2022-08-21T11:18:14;101744.97;;;27.35;53.98
71716;BME280;59568;52.128;5.434;2022-08-21T11:20:47;101731.19;;;27.58;49.89
71716;BME280;59568;52.128;5.434;2022-08-21T11:23:31;101735.75;;;27.36;50.28
71716;BME280;59568;52.128;5.434;2022-08-21T11:26:08;101727.84;;;26.81;49.56
71716;BME280;59568;52.128;5.434;2022-08-21T11:28:46;101733.88;;;26.63;49.70
71716;BME280;59568;52.128;5.434;2022-08-21T11:36:53;101723.41;;;27.17;52.17
71716;BME280;59568;52.128;5.434;2022-08-21T11:39:26;101732.59;;;27.13;52.07
71716;BME280;59568;52.128;5.434;2022-08-21T11:42:12;101723.66;;;26.83;50.25
71716;BME280;59568;52.128;5.434;2022-08-21T11:48:42;101733.34;;;27.09;49.74
71716;BME280;59568;52.128;5.434;2022-08-21T11:50:42;101736.28;;;26.83;52.51
71716;BME280;59568;52.128;5.434;2022-08-21T11:53:29;101746.06;;;26.57;52.83
71716;BME280;59568;52.128;5.434;2022-08-21T11:56:13;101744.81;;;26.44;52.25
71716;BME280;59568;52.128;5.434;2022-08-21T11:58:45;101746.59;;;26.25;52.24
71716;BME280;59568;52.128;5.434;2022-08-21T12:01:18;101750.31;;;26.10;52.61
71716;BME280;59568;52.128;5.434;2022-08-21T12:06:30;101751.63;;;25.89;50.34
71716;BME280;59568;52.128;5.434;2022-08-21T12:09:00;101751.25;;;25.50;53.55
71716;BME280;59568;52.128;5.434;2022-08-21T12:11:30;101755.56;;;25.28;53.70
71716;BME280;59568;52.128;5.434;2022-08-21T12:14:13;101753.09;;;25.16;55.76
71716;BME280;59568;52.128;5.434;2022-08-21T12:16:46;101756.03;;;25.07;57.59
71716;BME280;59568;52.128;5.434;2022-08-21T12:26:56;101747.94;;;25.30;55.35
71716;BME280;59568;52.128;5.434;2022-08-21T12:29:27;101746.56;;;25.13;58.80
71716;BME280;59568;52.128;5.434;2022-08-21T12:32:25;101746.75;;;24.97;55.63
71716;BME280;59568;52.128;5.434;2022-08-21T12:34:55;101749.63;;;24.85;58.21
71716;BME280;59568;52.128;5.434;2022-08-21T12:40:10;101751.34;;;25.61;57.72
71716;BME280;59568;52.128;5.434;2022-08-21T12:42:44;101746.94;;;26.17;55.44
71716;BME280;59568;52.128;5.434;2022-08-21T12:45:30;101752.84;;;25.96;54.78
71716;BME280;59568;52.128;5.434;2022-08-21T12:51:21;101756.13;;;25.44;56.06
71716;BME280;59568;52.128;5.434;2022-08-21T12:53:55;101749.16;;;25.70;56.25
71716;BME280;59568;52.128;5.434;2022-08-21T12:56:25;101745.59;;;26.48;53.19
71716;BME280;59568;52.128;5.434;2022-08-21T12:59:11;101743.25;;;27.02;51.26
71716;BME280;59568;52.128;5.434;2022-08-21T13:01:46;101747.66;;;27.35;50.67
71716;BME280;59568;52.128;5.434;2022-08-21T13:04:19;101743.50;;;27.70;50.20
71716;BME280;59568;52.128;5.434;2022-08-21T13:06:53;101743.88;;;27.72;50.91
71716;BME280;59568;52.128;5.434;2022-08-21T13:09:26;101752.28;;;27.45;49.96
71716;BME280;59568;52.128;5.434;2022-08-21T13:11:54;101757.97;;;27.29;49.68
71716;BME280;59568;52.128;5.434;2022-08-21T13:14:38;101760.78;;;26.78;48.75
71716;BME280;59568;52.128;5.434;2022-08-21T13:17:14;101758.94;;;26.37;51.37
71716;BME280;59568;52.128;5.434;2022-08-21T13:19:59;101765.19;;;26.07;53.30
71716;BME280;59568;52.128;5.434;2022-08-21T13:22:27;101758.31;;;25.69;53.52
71716;BME280;59568;52.128;5.434;2022-08-21T13:25:00;101758.56;;;25.57;50.91
71716;BME280;59568;52.128;5.434;2022-08-21T13:27:32;101755.22;;;25.67;55.17
71716;BME280;59568;52.128;5.434;2022-08-21T13:30:06;101748.44;;;25.77;53.68
71716;BME280;59568;52.128;5.434;2022-08-21T13:32:36;101752.28;;;25.76;53.02
71716;BME280;59568;52.128;5.434;2022-08-21T13:35:16;101752.81;;;25.55;51.69
71716;BME280;59568;52.128;5.434;2022-08-21T13:37:45;101753.78;;;25.39;55.26
71716;BME280;59568;52.128;5.434;2022-08-21T13:43:02;101756.09;;;25.41;55.62
71716;BME280;59568;52.128;5.434;2022-08-21T13:45:32;101745.81;;;25.80;51.10
71716;BME280;59568;52.128;5.434;2022-08-21T13:48:00;101756.28;;;25.93;54.07
71716;BME280;59568;52.128;5.434;2022-08-21T13:50:34;101749.81;;;25.97;53.01
71716;BME280;59568;52.128;5.434;2022-08-21T13:53:04;101749.25;;;25.81;54.05
71716;BME280;59568;52.128;5.434;2022-08-21T13:55:41;101746.06;;;25.68;55.34
71716;BME280;59568;52.128;5.434;2022-08-21T13:58:09;101747.47;;;25.55;55.77
71716;BME280;59568;52.128;5.434;2022-08-21T14:00:53;101753.78;;;25.39;55.32
71716;BME280;59568;52.128;5.434;2022-08-21T14:03:42;101743.03;;;25.05;53.00
71716;BME280;59568;52.128;5.434;2022-08-21T14:06:18;101744.38;;;24.92;54.46
71716;BME280;59568;52.128;5.434;2022-08-21T14:08:52;101736.22;;;24.81;55.64
71716;BME280;59568;52.128;5.434;2022-08-21T14:11:20;101742.91;;;24.68;55.90
71716;BME280;59568;52.128;5.434;2022-08-21T14:16:27;101742.97;;;25.28;54.29
71716;BME280;59568;52.128;5.434;2022-08-21T14:24:11;101748.78;;;25.07;53.73
71716;BME280;59568;52.128;5.434;2022-08-21T14:26:49;101750.81;;;24.87;55.47
71716;BME280;59568;52.128;5.434;2022-08-21T14:29:17;101751.81;;;24.76;56.00